createdAt,value
2018-08-08T00:00:15.815Z,28.70
2018-08-08T00:05:18.952Z,28.70
2018-08-08T00:10:22.043Z,28.60
2018-08-08T00:15:25.161Z,28.60
2018-08-08T00:20:28.269Z,28.50
2018-08-08T00:25:31.395Z,28.50
2018-08-08T00:30:34.488Z,28.50
2018-08-08T00:35:37.599Z,28.40
2018-08-08T00:40:40.685Z,28.40
2018-08-08T00:45:43.785Z,28.30
2018-08-08T00:50:46.875Z,28.30
2018-08-08T00:55:49.999Z,28.30
2018-08-08T01:00:53.076Z,28.30
2018-08-08T01:05:56.190Z,28.30
2018-08-08T01:10:59.299Z,28.20
2018-08-08T01:16:02.407Z,28.20
2018-08-08T01:21:05.527Z,28.10
2018-08-08T01:26:08.636Z,28.00
2018-08-08T01:31:11.722Z,28.00
2018-08-08T01:36:14.811Z,28.00
2018-08-08T01:41:17.921Z,27.90
2018-08-08T01:46:21.002Z,27.90
2018-08-08T01:51:24.095Z,27.80
2018-08-08T01:56:27.196Z,27.70
2018-08-08T02:01:30.278Z,27.70
2018-08-08T02:06:33.371Z,27.60
2018-08-08T02:11:36.536Z,27.60
2018-08-08T02:16:39.615Z,27.50
2018-08-08T02:21:42.731Z,27.50
2018-08-08T02:26:45.917Z,27.40
2018-08-08T02:31:49.045Z,27.40
2018-08-08T02:36:52.119Z,27.30
2018-08-08T02:41:55.204Z,27.30
2018-08-08T02:46:58.295Z,27.20
2018-08-08T02:52:01.392Z,27.20
2018-08-08T02:57:04.511Z,27.20
2018-08-08T03:02:07.804Z,27.10
2018-08-08T03:07:10.905Z,27.10
2018-08-08T03:12:14.003Z,27.10
2018-08-08T03:17:17.099Z,27.00
2018-08-08T03:22:20.198Z,27.00
2018-08-08T03:27:23.295Z,26.90
2018-08-08T03:32:26.447Z,26.90
2018-08-08T03:37:29.552Z,26.90
2018-08-08T03:42:32.695Z,26.90
2018-08-08T03:47:35.871Z,26.80
2018-08-08T03:52:39.586Z,26.80
2018-08-08T03:57:42.937Z,26.80
2018-08-08T04:02:46.492Z,26.80
2018-08-08T04:07:49.571Z,26.70
2018-08-08T04:12:52.702Z,26.70
2018-08-08T04:17:55.891Z,26.70
2018-08-08T04:22:58.968Z,26.60
2018-08-08T04:28:02.136Z,26.60
2018-08-08T04:33:05.646Z,26.60
2018-08-08T04:38:08.764Z,26.60
2018-08-08T04:43:11.863Z,26.60
2018-08-08T04:48:14.949Z,26.60
2018-08-08T04:53:18.063Z,26.60
2018-08-08T04:58:21.184Z,26.70
2018-08-08T05:03:24.287Z,26.70
2018-08-08T05:08:28.058Z,26.80
2018-08-08T05:13:31.170Z,26.90
2018-08-08T05:18:34.273Z,26.90
2018-08-08T05:23:37.347Z,27.00
2018-08-08T05:28:40.442Z,27.00
2018-08-08T05:33:43.535Z,27.00
2018-08-08T05:38:46.688Z,27.10
2018-08-08T05:43:49.798Z,27.10
2018-08-08T05:48:53.408Z,27.20
2018-08-08T05:53:56.533Z,27.20
2018-08-08T05:58:59.747Z,27.20
2018-08-08T06:04:02.848Z,27.30
2018-08-08T06:09:07.960Z,27.40
2018-08-08T06:14:11.064Z,27.50
2018-08-08T06:19:14.168Z,27.50
2018-08-08T06:24:17.274Z,27.60
2018-08-08T06:29:20.381Z,27.70
2018-08-08T06:34:23.504Z,27.80
2018-08-08T06:39:26.695Z,27.90
2018-08-08T06:44:29.799Z,28.10
2018-08-08T06:49:32.906Z,28.20
2018-08-08T06:54:35.992Z,28.30
2018-08-08T06:59:39.115Z,28.40
2018-08-08T07:04:42.240Z,28.60
2018-08-08T07:09:45.331Z,28.70
2018-08-08T07:14:48.524Z,28.80
2018-08-08T07:19:51.685Z,29.00
2018-08-08T07:24:54.751Z,29.20
2018-08-08T07:29:58.103Z,29.30
2018-08-08T07:35:01.187Z,29.50
2018-08-08T07:40:06.248Z,29.70
2018-08-08T07:45:11.247Z,29.90
2018-08-08T07:50:14.403Z,30.00
2018-08-08T07:55:18.338Z,30.10
2018-08-08T08:00:24.727Z,30.30
2018-08-08T08:05:28.186Z,30.50
2018-08-08T08:10:31.280Z,30.60
2018-08-08T08:15:34.416Z,30.80
2018-08-08T08:20:37.523Z,30.90
2018-08-08T08:25:40.600Z,31.10
2018-08-08T08:30:43.665Z,31.20
2018-08-08T08:35:46.874Z,31.40
2018-08-08T08:40:49.951Z,31.60
2018-08-08T08:45:53.055Z,31.70
2018-08-08T08:50:56.168Z,31.90
2018-08-08T08:55:59.246Z,32.00
2018-08-08T09:01:02.344Z,32.20
2018-08-08T09:06:05.432Z,32.30
2018-08-08T09:11:08.639Z,32.40
2018-08-08T09:16:11.736Z,32.50
2018-08-08T09:21:14.863Z,32.60
2018-08-08T09:26:17.976Z,32.70
2018-08-08T09:31:21.132Z,32.90
2018-08-08T09:36:24.220Z,32.90
2018-08-08T09:41:27.295Z,33.10
2018-08-08T09:46:30.399Z,33.20
2018-08-08T09:51:33.528Z,33.40
2018-08-08T09:56:36.656Z,33.70
2018-08-08T10:01:45.195Z,33.90
2018-08-08T10:06:48.288Z,34.10
2018-08-08T10:11:51.409Z,34.30
2018-08-08T10:16:54.517Z,34.50
2018-08-08T10:21:57.615Z,34.70
2018-08-08T10:27:00.775Z,34.80
2018-08-08T10:32:03.819Z,35.00
2018-08-08T10:37:06.891Z,35.30
2018-08-08T10:42:10.001Z,35.50
2018-08-08T10:47:13.105Z,35.70
2018-08-08T10:52:16.424Z,36.00
2018-08-08T10:57:19.653Z,36.10
2018-08-08T11:02:22.784Z,36.30
2018-08-08T11:07:25.907Z,36.40
2018-08-08T11:12:28.983Z,36.60
2018-08-08T11:17:32.108Z,36.70
2018-08-08T11:22:35.212Z,36.90
2018-08-08T11:27:38.427Z,36.90
2018-08-08T11:32:41.612Z,37.00
2018-08-08T11:37:44.757Z,37.00
2018-08-08T11:42:47.843Z,37.10
2018-08-08T11:47:51.303Z,37.20
2018-08-08T11:52:54.396Z,37.30
2018-08-08T11:57:57.495Z,37.50
2018-08-08T12:03:00.612Z,37.50
2018-08-08T12:08:03.743Z,37.60
2018-08-08T12:13:06.904Z,37.50
2018-08-08T12:18:10.031Z,37.50
2018-08-08T12:23:13.127Z,37.40
2018-08-08T12:28:16.244Z,37.20
2018-08-08T12:33:19.352Z,37.10
2018-08-08T12:38:22.463Z,37.10
2018-08-08T12:43:25.543Z,37.10
2018-08-08T12:48:28.654Z,37.10
2018-08-08T12:53:31.793Z,37.10
2018-08-08T12:58:34.864Z,37.20
2018-08-08T13:03:38.052Z,37.30
2018-08-08T13:08:41.157Z,37.50
2018-08-08T13:13:44.413Z,37.60
2018-08-08T13:18:47.832Z,37.80
2018-08-08T13:23:51.056Z,37.90
2018-08-08T13:28:54.356Z,37.90
2018-08-08T13:33:57.548Z,38.00
2018-08-08T13:39:00.637Z,37.90
2018-08-08T13:44:04.096Z,37.80
2018-08-08T13:49:07.395Z,37.80
2018-08-08T13:54:10.516Z,37.80
2018-08-08T13:59:13.684Z,37.90
2018-08-08T14:04:16.740Z,38.00
2018-08-08T14:09:19.831Z,38.00
2018-08-08T14:14:23.002Z,38.00
2018-08-08T14:19:26.055Z,37.90
2018-08-08T14:24:29.152Z,37.80
2018-08-08T14:29:32.321Z,37.80
2018-08-08T14:34:35.405Z,37.80
2018-08-08T14:39:38.532Z,37.80
2018-08-08T14:44:41.605Z,37.90
2018-08-08T14:49:44.733Z,37.90
2018-08-08T14:54:47.827Z,37.90
2018-08-08T14:59:50.922Z,37.90
2018-08-08T15:04:54.055Z,37.80
2018-08-08T15:09:57.164Z,37.70
2018-08-08T15:15:00.259Z,37.60
2018-08-08T15:20:03.380Z,37.50
2018-08-08T15:25:07.451Z,37.50
2018-08-08T15:30:11.243Z,37.40
2018-08-08T15:35:14.352Z,37.30
2018-08-08T15:40:17.440Z,37.20
2018-08-08T15:45:20.552Z,37.10
2018-08-08T15:50:23.651Z,37.00
2018-08-08T16:00:36.328Z,36.80
2018-08-08T16:05:39.455Z,36.70
2018-08-08T16:10:42.543Z,36.70
2018-08-08T16:15:45.627Z,36.60
2018-08-08T16:20:48.788Z,36.60
2018-08-08T16:25:51.871Z,36.50
2018-08-08T16:30:54.986Z,36.40
2018-08-08T16:35:58.177Z,36.40
2018-08-08T16:41:01.388Z,36.30
2018-08-08T16:46:04.481Z,36.20
2018-08-08T16:51:10.075Z,36.10
2018-08-08T16:56:13.243Z,36.00
2018-08-08T17:01:16.355Z,35.90
2018-08-08T17:06:19.480Z,35.70
2018-08-08T17:11:22.695Z,35.60
2018-08-08T17:16:25.896Z,35.40
2018-08-08T17:21:29.004Z,35.30
2018-08-08T17:26:32.115Z,35.10
2018-08-08T17:31:35.223Z,34.90
2018-08-08T17:36:38.332Z,34.70
2018-08-08T17:41:41.454Z,34.40
2018-08-08T17:46:45.031Z,34.20
2018-08-08T17:51:48.144Z,34.10
2018-08-08T17:56:51.264Z,33.90
2018-08-08T18:01:54.372Z,33.80
2018-08-08T18:06:58.036Z,33.70
2018-08-08T18:12:01.128Z,33.50
2018-08-08T18:17:04.271Z,33.40
2018-08-08T18:22:07.388Z,33.30
2018-08-08T18:27:10.528Z,33.10
2018-08-08T18:32:13.626Z,32.90
2018-08-08T18:37:16.736Z,32.80
2018-08-08T18:42:19.840Z,32.60
2018-08-08T18:47:22.932Z,32.40
2018-08-08T18:52:26.055Z,32.30
2018-08-08T18:57:29.172Z,32.20
2018-08-08T19:02:32.295Z,32.10
2018-08-08T19:07:35.616Z,31.90
2018-08-08T19:12:38.802Z,31.70
2018-08-08T19:17:41.918Z,31.40
2018-08-08T19:22:45.047Z,31.30
2018-08-08T19:27:48.176Z,31.20
2018-08-08T19:32:51.295Z,31.10
2018-08-08T19:37:54.393Z,30.90
2018-08-08T19:42:57.508Z,30.80
2018-08-08T19:48:00.600Z,30.70
2018-08-08T19:53:03.700Z,30.60
2018-08-08T19:58:06.796Z,30.40
2018-08-08T20:03:09.956Z,30.30
2018-08-08T20:08:17.316Z,30.20
2018-08-08T20:13:20.525Z,30.10
2018-08-08T20:18:24.252Z,30.00
2018-08-08T20:23:27.407Z,29.90
2018-08-08T20:28:30.540Z,29.80
2018-08-08T20:33:33.672Z,29.70
2018-08-08T20:38:36.772Z,29.60
2018-08-08T20:43:39.944Z,29.50
2018-08-08T20:48:43.028Z,29.40
2018-08-08T20:53:46.615Z,29.20
2018-08-08T20:58:49.684Z,29.10
2018-08-08T21:03:52.787Z,29.00
2018-08-08T21:08:56.008Z,28.80
2018-08-08T21:13:59.123Z,28.70
2018-08-08T21:19:02.222Z,28.60
2018-08-08T21:24:05.328Z,28.50
2018-08-08T21:29:08.464Z,28.40
2018-08-08T21:34:11.594Z,28.30
2018-08-08T21:39:14.722Z,28.20
2018-08-08T21:44:17.801Z,28.20
2018-08-08T21:49:20.920Z,28.10
2018-08-08T21:54:35.551Z,28.00
2018-08-08T21:59:50.308Z,28.00
2018-08-08T22:05:04.859Z,27.90
2018-08-08T22:10:19.463Z,27.80
2018-08-08T22:15:33.989Z,27.70
2018-08-08T22:20:37.104Z,27.60
2018-08-08T22:25:40.216Z,27.50
2018-08-08T22:30:43.306Z,27.40
2018-08-08T22:35:46.466Z,27.30
2018-08-08T22:40:50.451Z,27.20
2018-08-08T22:45:53.546Z,27.00
2018-08-08T22:50:56.667Z,26.90
2018-08-08T22:55:59.775Z,26.90
2018-08-08T23:01:02.900Z,26.80
2018-08-08T23:06:06.040Z,26.60
2018-08-08T23:11:12.632Z,26.60
2018-08-08T23:16:15.756Z,26.60
2018-08-08T23:21:18.863Z,26.50
2018-08-08T23:26:21.935Z,26.50
2018-08-08T23:31:25.033Z,26.50
2018-08-08T23:36:28.144Z,26.40
2018-08-08T23:41:31.243Z,26.30
2018-08-08T23:46:34.351Z,26.20
2018-08-08T23:51:37.460Z,26.10
2018-08-08T23:56:40.546Z,26.10
